createdAt,value
2023-02-22T00:02:29.008Z,100771.34
2023-02-22T00:06:31.055Z,100775.47
2023-02-22T00:10:32.393Z,100767.63
2023-02-22T00:14:33.776Z,100773.47
2023-02-22T00:18:35.098Z,100764.94
2023-02-22T00:22:36.524Z,100763.00
2023-02-22T00:26:39.033Z,100758.19
2023-02-22T00:30:46.207Z,100757.84
2023-02-22T00:34:51.908Z,100758.69
2023-02-22T00:38:53.347Z,100753.19
2023-02-22T00:42:54.647Z,100756.06
2023-02-22T00:46:55.914Z,100752.22
2023-02-22T00:50:57.283Z,100749.53
2023-02-22T00:54:59.957Z,100748.41
2023-02-22T00:59:01.344Z,100740.78
2023-02-22T01:03:04.806Z,100734.16
2023-02-22T01:07:06.377Z,100730.75
2023-02-22T01:11:07.682Z,100725.72
2023-02-22T01:15:10.896Z,100724.00
2023-02-22T01:19:12.730Z,100715.63
2023-02-22T01:23:14.823Z,100716.06
2023-02-22T01:27:17.722Z,100713.91
2023-02-22T01:31:19.456Z,100708.03
2023-02-22T01:35:24.129Z,100705.38
2023-02-22T01:39:25.520Z,100701.03
2023-02-22T01:43:30.952Z,100697.31
2023-02-22T01:47:32.372Z,100691.13
2023-02-22T01:51:38.886Z,100689.34
2023-02-22T01:55:40.816Z,100686.03
2023-02-22T01:59:47.460Z,100692.53
2023-02-22T02:03:50.307Z,100684.28
2023-02-22T02:07:52.861Z,100673.47
2023-02-22T02:11:54.405Z,100670.78
2023-02-22T02:15:56.371Z,100670.41
2023-02-22T02:20:11.788Z,100668.75
2023-02-22T02:24:39.563Z,100657.09
2023-02-22T02:29:10.432Z,100661.47
2023-02-22T02:33:20.607Z,100656.13
2023-02-22T02:37:33.082Z,100653.78
2023-02-22T02:41:39.756Z,100648.22
2023-02-22T02:45:49.423Z,100638.94
2023-02-22T02:50:21.239Z,100643.03
2023-02-22T02:54:23.988Z,100640.16
2023-02-22T02:58:26.200Z,100641.84
2023-02-22T03:02:55.148Z,100639.41
2023-02-22T03:07:06.895Z,100639.53
2023-02-22T03:11:19.771Z,100642.31
2023-02-22T03:15:46.210Z,100638.25
2023-02-22T03:19:57.840Z,100639.09
2023-02-22T03:24:12.903Z,100635.13
2023-02-22T03:28:18.565Z,100638.56
2023-02-22T03:32:25.399Z,100625.41
2023-02-22T03:36:52.802Z,100626.63
2023-02-22T03:40:59.223Z,100627.50
2023-02-22T03:45:05.040Z,100622.06
2023-02-22T03:49:14.229Z,100629.63
2023-02-22T03:53:18.422Z,100626.34
2023-02-22T03:57:28.432Z,100621.34
2023-02-22T04:01:29.821Z,100617.69
2023-02-22T04:05:31.205Z,100617.72
2023-02-22T04:09:32.727Z,100628.94
2023-02-22T04:13:36.405Z,100624.56
2023-02-22T04:17:37.681Z,100622.94
2023-02-22T04:21:39.111Z,100624.41
2023-02-22T04:25:40.661Z,100624.03
2023-02-22T04:29:42.049Z,100617.53
2023-02-22T04:33:43.431Z,100608.53
2023-02-22T04:37:44.775Z,100612.72
2023-02-22T04:41:47.391Z,100613.69
2023-02-22T04:45:48.946Z,100608.47
2023-02-22T04:49:50.310Z,100609.50
2023-02-22T04:53:51.632Z,100608.81
2023-02-22T04:57:52.972Z,100602.00
2023-02-22T05:01:54.743Z,100601.59
2023-02-22T05:05:56.063Z,100608.34
2023-02-22T05:09:57.418Z,100598.97
2023-02-22T05:13:58.724Z,100600.44
2023-02-22T05:18:00.277Z,100592.56
2023-02-22T05:22:01.772Z,100592.53
2023-02-22T05:26:03.237Z,100580.59
2023-02-22T05:30:05.222Z,100585.53
2023-02-22T05:34:06.540Z,100584.69
2023-02-22T05:38:07.882Z,100576.03
2023-02-22T05:42:09.178Z,100576.16
2023-02-22T05:46:10.702Z,100566.78
2023-02-22T05:50:13.000Z,100570.81
2023-02-22T05:54:14.308Z,100563.81
2023-02-22T05:58:15.843Z,100562.50
2023-02-22T06:02:17.389Z,100555.63
2023-02-22T06:06:22.259Z,100556.91
2023-02-22T06:10:23.878Z,100556.91
2023-02-22T06:14:25.278Z,100555.09
2023-02-22T06:18:26.788Z,100554.75
2023-02-22T06:22:28.396Z,100556.19
2023-02-22T06:26:29.970Z,100556.19
2023-02-22T06:30:31.405Z,100545.72
2023-02-22T06:34:32.750Z,100551.38
2023-02-22T06:38:34.049Z,100551.50
2023-02-22T06:42:35.394Z,100553.13
2023-02-22T06:46:38.013Z,100553.38
2023-02-22T06:50:39.471Z,100552.22
2023-02-22T06:54:40.782Z,100562.91
2023-02-22T06:58:42.127Z,100555.00
2023-02-22T07:02:43.444Z,100550.97
2023-02-22T07:06:47.001Z,100552.06
2023-02-22T07:10:50.425Z,100548.16
2023-02-22T07:14:55.496Z,100545.75
2023-02-22T07:18:56.828Z,100542.25
2023-02-22T07:22:58.160Z,100540.75
2023-02-22T07:27:01.275Z,100533.88
2023-02-22T07:31:04.863Z,100541.56
2023-02-22T07:35:08.934Z,100540.63
2023-02-22T07:39:11.113Z,100542.44
2023-02-22T07:43:21.538Z,100541.31
2023-02-22T07:47:22.901Z,100540.44
2023-02-22T07:51:24.283Z,100533.59
2023-02-22T07:55:27.906Z,100528.78
2023-02-22T07:59:29.261Z,100528.09
2023-02-22T08:03:36.202Z,100524.56
2023-02-22T08:07:38.021Z,100519.78
2023-02-22T08:11:39.516Z,100521.16
2023-02-22T08:15:49.331Z,100514.25
2023-02-22T08:19:50.695Z,100517.31
2023-02-22T08:23:54.234Z,100503.50
2023-02-22T08:28:08.307Z,100506.19
2023-02-22T08:32:09.872Z,100513.28
2023-02-22T08:36:11.342Z,100508.13
2023-02-22T08:40:14.966Z,100490.69
2023-02-22T08:44:17.710Z,100501.44
2023-02-22T08:48:19.882Z,100489.09
2023-02-22T08:52:21.631Z,100487.16
2023-02-22T08:56:23.152Z,100483.63
2023-02-22T09:00:25.254Z,100477.75
2023-02-22T09:04:26.625Z,100477.91
2023-02-22T09:08:30.989Z,100471.19
2023-02-22T09:12:32.425Z,100463.84
2023-02-22T09:16:33.856Z,100467.84
2023-02-22T09:20:36.242Z,100462.81
2023-02-22T09:24:37.728Z,100467.69
2023-02-22T09:28:39.296Z,100465.28
2023-02-22T09:32:40.778Z,100461.19
2023-02-22T09:36:43.881Z,100458.13
2023-02-22T09:41:13.984Z,100459.84
2023-02-22T09:45:23.851Z,100451.00
2023-02-22T09:49:34.681Z,100459.00
2023-02-22T09:53:42.239Z,100459.91
2023-02-22T09:57:43.992Z,100450.13
2023-02-22T10:01:49.850Z,100444.72
2023-02-22T10:06:01.184Z,100427.84
2023-02-22T10:10:06.375Z,100438.66
2023-02-22T10:14:25.894Z,100429.59
2023-02-22T10:18:43.972Z,100435.81
2023-02-22T10:23:04.517Z,100427.34
2023-02-22T10:27:17.243Z,100421.84
2023-02-22T10:31:33.861Z,100429.19
2023-02-22T10:35:41.195Z,100418.16
2023-02-22T10:39:45.537Z,100421.94
2023-02-22T10:43:46.947Z,100411.38
2023-02-22T10:47:49.717Z,100411.44
2023-02-22T10:52:02.172Z,100405.72
2023-02-22T10:56:18.359Z,100404.53
2023-02-22T11:00:29.425Z,100394.97
2023-02-22T11:04:49.718Z,100376.72
2023-02-22T11:08:52.095Z,100379.94
2023-02-22T11:12:53.572Z,100380.91
2023-02-22T11:16:57.169Z,100377.59
2023-02-22T11:21:00.920Z,100379.41
2023-02-22T11:25:07.370Z,100359.22
2023-02-22T11:29:12.404Z,100367.00
2023-02-22T11:33:23.401Z,100366.78
2023-02-22T11:37:33.264Z,100356.56
2023-02-22T11:41:34.915Z,100350.88
2023-02-22T11:45:44.204Z,100348.28
2023-02-22T11:49:53.442Z,100340.22
2023-02-22T11:53:54.841Z,100337.47
2023-02-22T11:58:05.912Z,100338.56
2023-02-22T12:02:18.366Z,100333.00
2023-02-22T12:06:40.976Z,100327.03
2023-02-22T12:10:58.653Z,100322.28
2023-02-22T12:15:14.871Z,100321.38
2023-02-22T12:19:29.398Z,100331.38
2023-02-22T12:23:44.878Z,100342.06
2023-02-22T12:27:52.160Z,100326.56
2023-02-22T12:32:18.327Z,100331.38
2023-02-22T12:36:24.988Z,100331.56
2023-02-22T12:40:37.351Z,100337.03
2023-02-22T12:44:40.751Z,100331.88
2023-02-22T12:49:03.085Z,100327.84
2023-02-22T12:53:16.752Z,100323.84
2023-02-22T12:57:42.324Z,100335.84
2023-02-22T13:01:50.716Z,100328.69
2023-02-22T13:06:05.516Z,100328.56
2023-02-22T13:10:37.984Z,100326.53
2023-02-22T13:14:47.312Z,100334.09
2023-02-22T13:19:06.934Z,100327.75
2023-02-22T13:23:17.211Z,100321.31
2023-02-22T13:27:41.893Z,100326.25
2023-02-22T13:31:59.296Z,100322.59
2023-02-22T13:36:13.336Z,100327.44
2023-02-22T13:40:39.346Z,100312.28
2023-02-22T13:45:04.120Z,100314.03
2023-02-22T13:49:33.217Z,100301.84
2023-02-22T13:54:01.527Z,100315.63
2023-02-22T13:58:11.760Z,100315.22
2023-02-22T14:02:57.349Z,100309.94
2023-02-22T14:07:01.238Z,100317.66
2023-02-22T14:11:11.570Z,100310.78
2023-02-22T14:15:28.277Z,100312.84
2023-02-22T14:19:30.858Z,100302.56
2023-02-22T14:23:40.219Z,100299.94
2023-02-22T14:27:42.325Z,100300.25
2023-02-22T14:31:43.732Z,100295.47
2023-02-22T14:35:50.126Z,100303.06
2023-02-22T14:40:25.687Z,100302.28
2023-02-22T14:44:39.510Z,100296.78
2023-02-22T14:48:42.830Z,100292.91
2023-02-22T14:52:47.446Z,100292.34
2023-02-22T14:57:14.575Z,100294.66
2023-02-22T15:01:49.104Z,100295.38
2023-02-22T15:05:54.498Z,100293.97
2023-02-22T15:10:17.750Z,100295.91
2023-02-22T15:14:26.685Z,100289.84
2023-02-22T15:18:35.088Z,100292.22
2023-02-22T15:22:37.272Z,100291.28
2023-02-22T15:26:51.924Z,100304.72
2023-02-22T15:31:25.119Z,100299.47
2023-02-22T15:35:29.078Z,100297.13
2023-02-22T15:39:34.311Z,100299.63
2023-02-22T15:43:35.713Z,100298.69
2023-02-22T15:47:39.971Z,100301.22
2023-02-22T15:51:46.327Z,100308.56
2023-02-22T15:55:54.962Z,100309.31
2023-02-22T15:59:57.422Z,100312.72
2023-02-22T16:03:59.594Z,100323.84
2023-02-22T16:08:01.025Z,100315.00
2023-02-22T16:12:10.721Z,100313.72
2023-02-22T16:16:20.648Z,100318.78
2023-02-22T16:20:22.080Z,100321.13
2023-02-22T16:24:42.339Z,100323.09
2023-02-22T16:28:53.044Z,100328.56
2023-02-22T16:32:57.069Z,100329.63
2023-02-22T16:36:59.115Z,100331.97
2023-02-22T16:41:00.660Z,100327.72
2023-02-22T16:45:02.067Z,100333.50
2023-02-22T16:49:04.933Z,100332.81
2023-02-22T16:53:06.627Z,100334.38
2023-02-22T16:57:17.557Z,100342.72
2023-02-22T17:01:20.003Z,100347.97
2023-02-22T17:05:21.364Z,100350.47
2023-02-22T17:09:22.737Z,100351.28
2023-02-22T17:13:27.228Z,100351.75
2023-02-22T17:17:28.794Z,100365.16
2023-02-22T17:21:30.275Z,100362.97
2023-02-22T17:25:39.000Z,100367.72
2023-02-22T17:29:45.129Z,100362.44
2023-02-22T17:33:46.616Z,100357.28
2023-02-22T17:37:48.061Z,100369.03
2023-02-22T17:41:54.989Z,100370.41
2023-02-22T17:45:56.988Z,100374.44
2023-02-22T17:49:58.399Z,100386.16
2023-02-22T17:53:59.840Z,100393.69
2023-02-22T17:58:01.205Z,100396.25
2023-02-22T18:02:03.274Z,100387.91
2023-02-22T18:06:05.931Z,100390.72
2023-02-22T18:10:13.520Z,100387.41
2023-02-22T18:14:14.962Z,100391.28
2023-02-22T18:18:17.691Z,100386.59
2023-02-22T18:22:18.978Z,100389.41
2023-02-22T18:26:22.793Z,100386.41
2023-02-22T18:30:24.326Z,100393.13
2023-02-22T18:34:25.873Z,100394.53
2023-02-22T18:38:27.209Z,100399.56
2023-02-22T18:42:28.748Z,100406.06
2023-02-22T18:46:30.537Z,100396.13
2023-02-22T18:50:32.011Z,100405.94
2023-02-22T18:54:33.354Z,100412.03
2023-02-22T18:58:35.550Z,100409.81
2023-02-22T19:02:37.107Z,100401.56
2023-02-22T19:06:39.284Z,100404.94
2023-02-22T19:10:40.620Z,100411.28
2023-02-22T19:14:42.434Z,100411.91
2023-02-22T19:18:44.123Z,100412.09
2023-02-22T19:22:45.666Z,100408.28
2023-02-22T19:26:57.162Z,100412.97
2023-02-22T19:30:58.691Z,100409.22
2023-02-22T19:35:02.093Z,100415.47
2023-02-22T19:39:04.500Z,100421.50
2023-02-22T19:43:06.467Z,100422.06
2023-02-22T19:47:09.946Z,100424.44
2023-02-22T19:51:14.380Z,100422.13
2023-02-22T19:55:15.891Z,100420.75
2023-02-22T19:59:22.737Z,100426.25
2023-02-22T20:03:26.343Z,100428.06
2023-02-22T20:07:27.729Z,100438.50
2023-02-22T20:11:29.183Z,100441.88
2023-02-22T20:15:30.704Z,100436.56
2023-02-22T20:19:31.973Z,100437.84
2023-02-22T20:23:33.342Z,100436.44
2023-02-22T20:27:34.688Z,100438.25
2023-02-22T20:31:37.517Z,100445.94
2023-02-22T20:35:38.958Z,100446.41
2023-02-22T20:39:41.056Z,100440.97
2023-02-22T20:43:42.419Z,100450.28
2023-02-22T20:47:43.904Z,100449.09
2023-02-22T20:51:46.230Z,100444.28
2023-02-22T20:55:52.081Z,100455.91
2023-02-22T20:59:53.354Z,100452.59
2023-02-22T21:04:00.386Z,100458.50
2023-02-22T21:08:03.325Z,100463.69
2023-02-22T21:12:11.319Z,100460.75
2023-02-22T21:16:28.085Z,100457.59
2023-02-22T21:20:29.746Z,100454.63
2023-02-22T21:24:31.080Z,100463.53
2023-02-22T21:28:50.485Z,100466.53
2023-02-22T21:32:56.045Z,100469.31
2023-02-22T21:36:57.369Z,100461.06
2023-02-22T21:40:58.708Z,100468.50
2023-02-22T21:45:00.044Z,100466.66
2023-02-22T21:49:01.623Z,100465.69
2023-02-22T21:53:03.482Z,100472.50
2023-02-22T21:57:06.349Z,100474.16
2023-02-22T22:01:07.853Z,100475.47
2023-02-22T22:05:09.387Z,100482.41
2023-02-22T22:09:18.185Z,100479.75
2023-02-22T22:13:19.854Z,100479.06
2023-02-22T22:17:21.794Z,100471.66
2023-02-22T22:21:24.461Z,100477.19
2023-02-22T22:25:28.174Z,100473.28
2023-02-22T22:29:30.359Z,100463.66
2023-02-22T22:33:31.801Z,100464.06
2023-02-22T22:37:34.451Z,100458.22
2023-02-22T22:41:35.804Z,100460.94
2023-02-22T22:45:37.446Z,100465.28
2023-02-22T22:49:42.585Z,100467.44
2023-02-22T22:53:47.770Z,100468.84
2023-02-22T22:57:49.103Z,100463.88
2023-02-22T23:01:52.146Z,100474.66
2023-02-22T23:05:54.219Z,100464.47
2023-02-22T23:09:56.428Z,100467.84
2023-02-22T23:13:57.828Z,100462.06
2023-02-22T23:17:59.329Z,100463.81
2023-02-22T23:22:01.453Z,100461.63
2023-02-22T23:26:11.593Z,100466.22
2023-02-22T23:30:14.921Z,100459.28
2023-02-22T23:34:17.939Z,100474.06
2023-02-22T23:38:19.302Z,100465.22
2023-02-22T23:42:22.932Z,100467.88
2023-02-22T23:46:26.889Z,100469.59
2023-02-22T23:50:29.846Z,100466.72
2023-02-22T23:54:36.288Z,100469.50
2023-02-22T23:58:38.067Z,100474.50
